Wilmot, Ohio
Current Conditions -  °F | °C
As of 11:53 PM on Monday 20 Oct 2014 (Local Time) from KPHD Reporting Station
Overcast Overcast  
Wind Chill: 51°   Ceiling: 700
Heat Index: 51°   Visibility: 10mi
Dew Point: 49°   Wind: 0mph
Humidity: 92%   Direction: NA
Pressure: 29.88"   Gusts: NA
Location:  40.66°N, 81.63°W
Report Text: KPHD 210353Z AUTO 00000KT 10SM BKN007 BKN012 OVC019 11/09 A2988 RMK AO2 RAE49 CIG 006V010 SLP120 P0007 T01060094
Loading
Personal Weather Stations






























Interactive Weather Map
Tropical Storm Tracking
New forecast layout! Learn more

10-Day Weather Forecast

Advertisements
Track Severe Weather on mobile